Startpagina
METAR-TAF:

METAR-TAF

Vliegvelden :

Aeroporto João Paulo II

Ponta Delgada, Azoren, Portugal

breedte: 37-44N, lengte: 025-42W, hoogte: 71 m

Actueel weer

Dit bericht is 37 minuten geleden gemaakt, om 15:00 UTC
Wind 11 kt uit het noordnoordoosten, variërend tussen het noorden en het oostnoordoosten
Temperatuur 22°C
Vochtigheid 60%
Druk 1030 hPa
Zicht 10 km of meer
Weinig wolken op 2500 ft
Verspreide wolken op 4500 ft

METAR: LPPD 171500Z 03011KT 010V070 9999 FEW025 SCT045 22/14 Q1030

Tijdstip: 15:37 (15:37 UTC)

Verwachting

Dit bericht is 4 uur en het 37 minuten geleden gemaakt, om 11:00 UTC
Verwachting geldig van 17 om 12 UTC tot 18 om 12 UTC
Wind 8 kt uit het oosten
Zicht 10 km of meer
Verspreide wolken op 2000 ft
Tijdelijke
van 17 om 12 UTC tot 18 om 12 UTC
Weinig wolken op 1800 ft
Gebroken wolken op 4000 ft
Wijzigt naar
van 17 om 20 UTC tot 17 om 23 UTC
Wind 5 kt uit variabele richting

TAF: LPPD 171100Z 1712/1812 08008KT 9999 SCT020 TEMPO 1712/1812 FEW018 BKN040 BECMG 1720/1723 VRB05KT

Waarnemingen en weersverwachtingen van meer dan 4000 vliegvelden (METAR en TAF).

De beschikbare stations zijn de gele en rode punten op de kaart.

Ga met uw muis naar het station om de naam te zien.

Klik dan om waarnemingen en weersverwachtingen te zien.

kaart wijzigen: klik op de groene knoppen met een zwart kruis om in te zoomen, op de groene knop met een streepje om uit te zoomen of op de groene pijlen voor aangrenzende kaarten.


METAR-TAF: